sensor_id;sensor_type;location;lat;lon;timestamp;pressure;altitude;pressure_sealevel;temperature;humidity
9325;BME280;4701;51.566;6.776;2023-05-07T07:03:38;101332.94;;;14.99;92.90
9325;BME280;4701;51.566;6.776;2023-05-07T07:06:40;101335.06;;;15.07;93.63
9325;BME280;4701;51.566;6.776;2023-05-07T07:09:45;101335.59;;;15.14;94.18
9325;BME280;4701;51.566;6.776;2023-05-07T07:12:50;101340.22;;;15.24;94.44
9325;BME280;4701;51.566;6.776;2023-05-07T07:15:55;101346.75;;;15.33;94.32
9325;BME280;4701;51.566;6.776;2023-05-07T07:18:58;101348.91;;;15.41;94.11
9325;BME280;4701;51.566;6.776;2023-05-07T07:22:00;101341.16;;;15.48;93.66
9325;BME280;4701;51.566;6.776;2023-05-07T07:25:03;101342.53;;;15.56;93.68
9325;BME280;4701;51.566;6.776;2023-05-07T07:28:06;101347.41;;;15.64;93.18
9325;BME280;4701;51.566;6.776;2023-05-07T07:31:08;101348.19;;;15.70;92.69
9325;BME280;4701;51.566;6.776;2023-05-07T07:34:11;101340.44;;;15.77;92.12
9325;BME280;4701;51.566;6.776;2023-05-07T07:37:13;101348.06;;;15.85;91.80
9325;BME280;4701;51.566;6.776;2023-05-07T07:40:16;101346.91;;;15.91;91.29
9325;BME280;4701;51.566;6.776;2023-05-07T07:43:20;101352.09;;;15.98;90.89
9325;BME280;4701;51.566;6.776;2023-05-07T07:46:22;101346.28;;;16.04;90.54
9325;BME280;4701;51.566;6.776;2023-05-07T07:49:25;101332.47;;;16.09;90.47
9325;BME280;4701;51.566;6.776;2023-05-07T07:52:27;101343.94;;;16.16;90.13
9325;BME280;4701;51.566;6.776;2023-05-07T07:55:29;101345.84;;;16.21;89.59
9325;BME280;4701;51.566;6.776;2023-05-07T07:58:32;101343.56;;;16.28;89.48
9325;BME280;4701;51.566;6.776;2023-05-07T08:01:36;101347.91;;;16.34;89.35
9325;BME280;4701;51.566;6.776;2023-05-07T08:04:40;101356.13;;;16.39;89.09
9325;BME280;4701;51.566;6.776;2023-05-07T08:07:44;101361.56;;;16.44;88.92
9325;BME280;4701;51.566;6.776;2023-05-07T08:10:47;101357.34;;;16.52;88.88
9325;BME280;4701;51.566;6.776;2023-05-07T08:13:58;101349.06;;;16.57;88.67
9325;BME280;4701;51.566;6.776;2023-05-07T08:17:01;101357.81;;;16.64;88.57
9325;BME280;4701;51.566;6.776;2023-05-07T08:20:05;101354.69;;;16.71;88.50
9325;BME280;4701;51.566;6.776;2023-05-07T08:23:08;101360.97;;;16.76;88.06
9325;BME280;4701;51.566;6.776;2023-05-07T08:26:12;101368.06;;;16.82;87.85
9325;BME280;4701;51.566;6.776;2023-05-07T08:29:14;101361.66;;;16.87;87.73
9325;BME280;4701;51.566;6.776;2023-05-07T08:32:17;101362.44;;;16.92;87.36
9325;BME280;4701;51.566;6.776;2023-05-07T08:35:21;101359.63;;;16.97;87.14
9325;BME280;4701;51.566;6.776;2023-05-07T08:38:23;101368.91;;;17.01;86.70
9325;BME280;4701;51.566;6.776;2023-05-07T08:41:25;101368.03;;;17.06;86.46
9325;BME280;4701;51.566;6.776;2023-05-07T08:44:27;101372.66;;;17.11;86.27
9325;BME280;4701;51.566;6.776;2023-05-07T08:47:34;101373.44;;;17.16;86.07
9325;BME280;4701;51.566;6.776;2023-05-07T08:50:42;101372.00;;;17.19;85.88
9325;BME280;4701;51.566;6.776;2023-05-07T08:53:46;101361.75;;;17.24;85.77
9325;BME280;4701;51.566;6.776;2023-05-07T08:56:52;101360.84;;;17.29;85.58
9325;BME280;4701;51.566;6.776;2023-05-07T08:59:54;101373.75;;;17.33;85.32
9325;BME280;4701;51.566;6.776;2023-05-07T09:02:56;101365.41;;;17.38;85.19
9325;BME280;4701;51.566;6.776;2023-05-07T09:06:00;101367.56;;;17.42;84.96
9325;BME280;4701;51.566;6.776;2023-05-07T09:09:03;101367.50;;;17.47;84.78
9325;BME280;4701;51.566;6.776;2023-05-07T09:12:07;101366.91;;;17.50;84.73
9325;BME280;4701;51.566;6.776;2023-05-07T09:15:11;101365.19;;;17.54;84.80
9325;BME280;4701;51.566;6.776;2023-05-07T09:18:14;101365.94;;;17.59;84.10
9325;BME280;4701;51.566;6.776;2023-05-07T09:21:18;101371.69;;;17.63;84.20
9325;BME280;4701;51.566;6.776;2023-05-07T09:24:23;101364.47;;;17.67;84.03
9325;BME280;4701;51.566;6.776;2023-05-07T09:27:25;101366.31;;;17.71;84.00
9325;BME280;4701;51.566;6.776;2023-05-07T09:30:29;101360.75;;;17.76;83.69
9325;BME280;4701;51.566;6.776;2023-05-07T09:33:33;101352.38;;;17.82;83.84
9325;BME280;4701;51.566;6.776;2023-05-07T09:36:39;101365.78;;;17.88;83.68
9325;BME280;4701;51.566;6.776;2023-05-07T09:39:43;101360.78;;;17.90;83.63
9325;BME280;4701;51.566;6.776;2023-05-07T09:42:46;101363.97;;;17.97;83.44
9325;BME280;4701;51.566;6.776;2023-05-07T09:45:50;101365.03;;;18.01;83.13
9325;BME280;4701;51.566;6.776;2023-05-07T09:48:57;101357.47;;;18.07;82.62
9325;BME280;4701;51.566;6.776;2023-05-07T09:52:04;101356.25;;;18.13;82.89
9325;BME280;4701;51.566;6.776;2023-05-07T09:55:12;101356.19;;;18.18;83.03
9325;BME280;4701;51.566;6.776;2023-05-07T09:58:18;101367.66;;;18.25;83.13
9325;BME280;4701;51.566;6.776;2023-05-07T10:01:21;101352.94;;;18.30;83.01
9325;BME280;4701;51.566;6.776;2023-05-07T10:04:25;101355.31;;;18.36;82.74
9325;BME280;4701;51.566;6.776;2023-05-07T10:07:29;101351.94;;;18.39;82.56
9325;BME280;4701;51.566;6.776;2023-05-07T10:10:37;101357.03;;;18.46;82.76
9325;BME280;4701;51.566;6.776;2023-05-07T10:13:46;101352.56;;;18.50;82.48
9325;BME280;4701;51.566;6.776;2023-05-07T10:16:50;101352.19;;;18.57;82.34
9325;BME280;4701;51.566;6.776;2023-05-07T10:19:53;101341.38;;;18.60;81.89
9325;BME280;4701;51.566;6.776;2023-05-07T10:22:58;101352.00;;;18.67;81.49
9325;BME280;4701;51.566;6.776;2023-05-07T10:26:08;101355.47;;;18.72;81.35
9325;BME280;4701;51.566;6.776;2023-05-07T10:29:15;101352.09;;;18.75;80.99
9325;BME280;4701;51.566;6.776;2023-05-07T10:32:33;101349.22;;;18.80;80.84
9325;BME280;4701;51.566;6.776;2023-05-07T10:35:40;101350.25;;;18.84;80.79
9325;BME280;4701;51.566;6.776;2023-05-07T10:38:45;101352.09;;;18.89;80.45
9325;BME280;4701;51.566;6.776;2023-05-07T10:41:48;101351.47;;;18.92;80.37
9325;BME280;4701;51.566;6.776;2023-05-07T10:44:51;101357.41;;;18.99;79.81
9325;BME280;4701;51.566;6.776;2023-05-07T10:48:09;101349.03;;;19.04;79.19
9325;BME280;4701;51.566;6.776;2023-05-07T10:51:19;101350.03;;;19.08;79.37
9325;BME280;4701;51.566;6.776;2023-05-07T10:54:24;101349.94;;;19.13;79.13
9325;BME280;4701;51.566;6.776;2023-05-07T10:57:35;101351.47;;;19.19;78.85
9325;BME280;4701;51.566;6.776;2023-05-07T11:00:47;101349.41;;;19.25;78.60
9325;BME280;4701;51.566;6.776;2023-05-07T11:04:14;101344.59;;;19.31;78.44
9325;BME280;4701;51.566;6.776;2023-05-07T11:07:29;101341.69;;;19.36;78.45
9325;BME280;4701;51.566;6.776;2023-05-07T11:10:51;101343.22;;;19.42;78.37
9325;BME280;4701;51.566;6.776;2023-05-07T11:14:01;101348.94;;;19.45;77.79
9325;BME280;4701;51.566;6.776;2023-05-07T11:17:13;101340.56;;;19.50;77.27
9325;BME280;4701;51.566;6.776;2023-05-07T11:20:19;101343.22;;;19.55;76.76
9325;BME280;4701;51.566;6.776;2023-05-07T11:23:55;101351.06;;;19.62;76.20
9325;BME280;4701;51.566;6.776;2023-05-07T11:27:05;101339.06;;;19.67;75.23
9325;BME280;4701;51.566;6.776;2023-05-07T11:30:08;101340.09;;;19.71;75.27
9325;BME280;4701;51.566;6.776;2023-05-07T11:33:11;101337.69;;;19.78;75.27
9325;BME280;4701;51.566;6.776;2023-05-07T11:36:15;101344.25;;;19.82;75.32
9325;BME280;4701;51.566;6.776;2023-05-07T11:39:28;101340.22;;;19.88;75.27
9325;BME280;4701;51.566;6.776;2023-05-07T11:42:33;101342.84;;;19.93;74.97
9325;BME280;4701;51.566;6.776;2023-05-07T11:45:35;101341.56;;;19.99;74.99
9325;BME280;4701;51.566;6.776;2023-05-07T11:48:38;101340.97;;;20.02;74.57
9325;BME280;4701;51.566;6.776;2023-05-07T11:51:40;101344.09;;;20.09;74.66
9325;BME280;4701;51.566;6.776;2023-05-07T11:54:49;101340.41;;;20.14;74.15
9325;BME280;4701;51.566;6.776;2023-05-07T11:57:52;101338.91;;;20.16;72.09
9325;BME280;4701;51.566;6.776;2023-05-07T12:00:54;101353.47;;;20.22;72.22
9325;BME280;4701;51.566;6.776;2023-05-07T12:03:56;101345.00;;;20.27;72.53
9325;BME280;4701;51.566;6.776;2023-05-07T12:06:57;101340.50;;;20.31;72.38
9325;BME280;4701;51.566;6.776;2023-05-07T12:10:04;101348.69;;;20.36;72.00
9325;BME280;4701;51.566;6.776;2023-05-07T12:13:15;101353.59;;;20.39;70.88
9325;BME280;4701;51.566;6.776;2023-05-07T12:16:17;101349.03;;;20.43;71.00
9325;BME280;4701;51.566;6.776;2023-05-07T12:19:20;101348.41;;;20.46;71.02
9325;BME280;4701;51.566;6.776;2023-05-07T12:22:22;101349.75;;;20.49;70.92
9325;BME280;4701;51.566;6.776;2023-05-07T12:25:24;101351.03;;;20.51;70.82
9325;BME280;4701;51.566;6.776;2023-05-07T12:28:27;101354.16;;;20.50;70.12
9325;BME280;4701;51.566;6.776;2023-05-07T12:31:31;101351.84;;;20.52;70.29
9325;BME280;4701;51.566;6.776;2023-05-07T12:34:33;101349.09;;;20.52;70.40
9325;BME280;4701;51.566;6.776;2023-05-07T12:37:35;101359.34;;;20.51;70.01
9325;BME280;4701;51.566;6.776;2023-05-07T12:40:39;101351.69;;;20.48;69.62
9325;BME280;4701;51.566;6.776;2023-05-07T12:43:43;101353.63;;;20.48;70.13
9325;BME280;4701;51.566;6.776;2023-05-07T12:46:46;101357.03;;;20.45;69.07
9325;BME280;4701;51.566;6.776;2023-05-07T12:49:48;101352.63;;;20.44;69.66
9325;BME280;4701;51.566;6.776;2023-05-07T12:52:50;101362.41;;;20.41;70.22
9325;BME280;4701;51.566;6.776;2023-05-07T12:55:54;101360.78;;;20.40;70.47
9325;BME280;4701;51.566;6.776;2023-05-07T12:58:58;101362.53;;;20.36;70.23
9325;BME280;4701;51.566;6.776;2023-05-07T13:02:00;101365.59;;;20.34;69.96
9325;BME280;4701;51.566;6.776;2023-05-07T13:05:02;101367.88;;;20.32;70.34
9325;BME280;4701;51.566;6.776;2023-05-07T13:08:04;101367.34;;;20.30;70.17
9325;BME280;4701;51.566;6.776;2023-05-07T13:11:10;101364.38;;;20.27;69.61
9325;BME280;4701;51.566;6.776;2023-05-07T13:14:13;101369.09;;;20.26;69.97
9325;BME280;4701;51.566;6.776;2023-05-07T13:17:15;101369.41;;;20.25;69.84
9325;BME280;4701;51.566;6.776;2023-05-07T13:20:17;101365.88;;;20.24;70.54
9325;BME280;4701;51.566;6.776;2023-05-07T13:23:19;101364.53;;;20.22;69.83
9325;BME280;4701;51.566;6.776;2023-05-07T13:26:21;101366.50;;;20.21;69.25
9325;BME280;4701;51.566;6.776;2023-05-07T13:29:24;101369.25;;;20.21;69.98
9325;BME280;4701;51.566;6.776;2023-05-07T13:32:30;101372.84;;;20.22;70.23
9325;BME280;4701;51.566;6.776;2023-05-07T13:35:35;101375.59;;;20.22;70.33
9325;BME280;4701;51.566;6.776;2023-05-07T13:38:37;101380.84;;;20.23;70.57
9325;BME280;4701;51.566;6.776;2023-05-07T13:41:39;101374.16;;;20.24;70.78
9325;BME280;4701;51.566;6.776;2023-05-07T13:44:42;101386.84;;;20.25;70.66
9325;BME280;4701;51.566;6.776;2023-05-07T13:47:46;101386.53;;;20.27;70.92
9325;BME280;4701;51.566;6.776;2023-05-07T13:50:49;101390.94;;;20.28;71.09
9325;BME280;4701;51.566;6.776;2023-05-07T13:53:51;101394.22;;;20.30;71.20
9325;BME280;4701;51.566;6.776;2023-05-07T13:56:54;101390.31;;;20.31;71.51
9325;BME280;4701;51.566;6.776;2023-05-07T13:59:58;101383.97;;;20.30;70.72
9325;BME280;4701;51.566;6.776;2023-05-07T14:02:59;101393.09;;;20.31;70.90
9325;BME280;4701;51.566;6.776;2023-05-07T14:06:01;101389.50;;;20.30;71.11
9325;BME280;4701;51.566;6.776;2023-05-07T14:09:03;101383.97;;;20.30;71.39
9325;BME280;4701;51.566;6.776;2023-05-07T14:12:05;101378.75;;;20.29;70.50
9325;BME280;4701;51.566;6.776;2023-05-07T14:15:09;101395.34;;;20.29;70.70
9325;BME280;4701;51.566;6.776;2023-05-07T14:18:12;101386.84;;;20.25;70.58
9325;BME280;4701;51.566;6.776;2023-05-07T14:21:13;101393.53;;;20.24;70.38
9325;BME280;4701;51.566;6.776;2023-05-07T14:24:15;101400.53;;;20.22;70.67
9325;BME280;4701;51.566;6.776;2023-05-07T14:27:17;101401.66;;;20.21;71.03
9325;BME280;4701;51.566;6.776;2023-05-07T14:30:20;101401.13;;;20.19;71.17
9325;BME280;4701;51.566;6.776;2023-05-07T14:33:24;101407.31;;;20.16;71.05
9325;BME280;4701;51.566;6.776;2023-05-07T14:36:26;101407.63;;;20.14;71.45
9325;BME280;4701;51.566;6.776;2023-05-07T14:39:33;101407.94;;;20.13;71.26
9325;BME280;4701;51.566;6.776;2023-05-07T14:42:35;101410.19;;;20.11;71.93
9325;BME280;4701;51.566;6.776;2023-05-07T14:45:38;101415.22;;;20.09;73.16
9325;BME280;4701;51.566;6.776;2023-05-07T14:48:40;101418.00;;;20.09;74.38
9325;BME280;4701;51.566;6.776;2023-05-07T14:51:43;101425.81;;;20.07;75.24
9325;BME280;4701;51.566;6.776;2023-05-07T14:54:45;101428.88;;;20.05;76.30
9325;BME280;4701;51.566;6.776;2023-05-07T14:57:47;101416.19;;;20.04;77.01
9325;BME280;4701;51.566;6.776;2023-05-07T15:00:50;101419.25;;;20.02;77.47
9325;BME280;4701;51.566;6.776;2023-05-07T15:03:52;101416.78;;;20.01;77.87
9325;BME280;4701;51.566;6.776;2023-05-07T15:06:54;101430.94;;;19.99;78.40
9325;BME280;4701;51.566;6.776;2023-05-07T15:09:56;101432.41;;;19.97;78.48
9325;BME280;4701;51.566;6.776;2023-05-07T15:12:58;101434.03;;;19.98;79.05
9325;BME280;4701;51.566;6.776;2023-05-07T15:16:01;101436.81;;;19.98;79.55
9325;BME280;4701;51.566;6.776;2023-05-07T15:19:03;101436.00;;;19.97;80.06
9325;BME280;4701;51.566;6.776;2023-05-07T15:22:05;101427.03;;;20.00;80.45
9325;BME280;4701;51.566;6.776;2023-05-07T15:25:07;101442.50;;;20.01;80.82
9325;BME280;4701;51.566;6.776;2023-05-07T15:28:10;101439.13;;;20.05;81.20
9325;BME280;4701;51.566;6.776;2023-05-07T15:31:15;101434.94;;;20.07;81.18
9325;BME280;4701;51.566;6.776;2023-05-07T15:34:17;101428.75;;;20.10;81.40
9325;BME280;4701;51.566;6.776;2023-05-07T15:37:19;101445.88;;;20.12;81.63
9325;BME280;4701;51.566;6.776;2023-05-07T15:40:21;101432.84;;;20.13;81.31
9325;BME280;4701;51.566;6.776;2023-05-07T15:43:22;101434.50;;;20.14;81.13
9325;BME280;4701;51.566;6.776;2023-05-07T15:46:26;101433.66;;;20.13;80.86
9325;BME280;4701;51.566;6.776;2023-05-07T15:49:28;101440.34;;;20.12;80.61
9325;BME280;4701;51.566;6.776;2023-05-07T15:52:30;101435.94;;;20.11;80.19
9325;BME280;4701;51.566;6.776;2023-05-07T15:55:32;101432.94;;;20.08;80.21
9325;BME280;4701;51.566;6.776;2023-05-07T15:58:34;101426.94;;;20.06;80.21
9325;BME280;4701;51.566;6.776;2023-05-07T16:01:38;101426.72;;;20.02;80.39
9325;BME280;4701;51.566;6.776;2023-05-07T16:04:40;101424.28;;;20.00;80.44
9325;BME280;4701;51.566;6.776;2023-05-07T16:07:42;101421.03;;;19.98;80.32
9325;BME280;4701;51.566;6.776;2023-05-07T16:10:44;101425.22;;;19.96;80.58
9325;BME280;4701;51.566;6.776;2023-05-07T16:13:45;101420.63;;;19.91;80.39
9325;BME280;4701;51.566;6.776;2023-05-07T16:16:49;101427.31;;;19.90;80.80
9325;BME280;4701;51.566;6.776;2023-05-07T16:19:50;101427.09;;;19.87;80.87
9325;BME280;4701;51.566;6.776;2023-05-07T16:22:52;101423.00;;;19.84;80.65
9325;BME280;4701;51.566;6.776;2023-05-07T16:25:55;101421.69;;;19.82;80.87
9325;BME280;4701;51.566;6.776;2023-05-07T16:28:57;101424.47;;;19.82;81.30
9325;BME280;4701;51.566;6.776;2023-05-07T16:32:00;101430.63;;;19.79;81.67
9325;BME280;4701;51.566;6.776;2023-05-07T16:35:03;101429.28;;;19.76;81.70
9325;BME280;4701;51.566;6.776;2023-05-07T16:38:04;101435.94;;;19.75;82.19
9325;BME280;4701;51.566;6.776;2023-05-07T16:41:09;101438.22;;;19.73;82.55
9325;BME280;4701;51.566;6.776;2023-05-07T16:44:12;101453.19;;;19.72;83.22
9325;BME280;4701;51.566;6.776;2023-05-07T16:47:15;101442.41;;;19.71;83.49
9325;BME280;4701;51.566;6.776;2023-05-07T16:50:17;101450.19;;;19.69;83.97
9325;BME280;4701;51.566;6.776;2023-05-07T16:53:19;101452.16;;;19.68;84.21
9325;BME280;4701;51.566;6.776;2023-05-07T16:56:21;101459.94;;;19.66;84.26
9325;BME280;4701;51.566;6.776;2023-05-07T16:59:23;101464.16;;;19.63;84.51
9325;BME280;4701;51.566;6.776;2023-05-07T17:02:26;101466.09;;;19.63;84.47
9325;BME280;4701;51.566;6.776;2023-05-07T17:05:28;101464.75;;;19.60;84.66
9325;BME280;4701;51.566;6.776;2023-05-07T17:08:32;101467.00;;;19.58;84.82
9325;BME280;4701;51.566;6.776;2023-05-07T17:11:34;101470.06;;;19.57;84.92
9325;BME280;4701;51.566;6.776;2023-05-07T17:14:40;101475.13;;;19.55;84.75
9325;BME280;4701;51.566;6.776;2023-05-07T17:17:43;101477.38;;;19.53;84.78
9325;BME280;4701;51.566;6.776;2023-05-07T17:20:45;101476.84;;;19.51;84.79
9325;BME280;4701;51.566;6.776;2023-05-07T17:23:47;101480.25;;;19.48;84.05
9325;BME280;4701;51.566;6.776;2023-05-07T17:26:49;101481.94;;;19.44;83.93
9325;BME280;4701;51.566;6.776;2023-05-07T17:29:50;101477.84;;;19.41;83.33
9325;BME280;4701;51.566;6.776;2023-05-07T17:32:53;101482.38;;;19.37;82.83
9325;BME280;4701;51.566;6.776;2023-05-07T17:35:56;101492.09;;;19.35;82.83
9325;BME280;4701;51.566;6.776;2023-05-07T17:38:58;101490.75;;;19.32;82.45
9325;BME280;4701;51.566;6.776;2023-05-07T17:42:00;101498.84;;;19.28;82.32
9325;BME280;4701;51.566;6.776;2023-05-07T17:45:01;101506.94;;;19.25;81.84
9325;BME280;4701;51.566;6.776;2023-05-07T17:48:05;101504.28;;;19.20;81.69
9325;BME280;4701;51.566;6.776;2023-05-07T17:51:07;101508.75;;;19.16;81.35
9325;BME280;4701;51.566;6.776;2023-05-07T17:54:09;101510.22;;;19.13;81.11
9325;BME280;4701;51.566;6.776;2023-05-07T17:57:11;101507.53;;;19.08;80.68
9325;BME280;4701;51.566;6.776;2023-05-07T18:00:14;101515.09;;;19.03;80.24
9325;BME280;4701;51.566;6.776;2023-05-07T18:03:17;101520.09;;;19.01;80.03
9325;BME280;4701;51.566;6.776;2023-05-07T18:06:19;101528.16;;;18.97;79.92
9325;BME280;4701;51.566;6.776;2023-05-07T18:09:22;101523.56;;;18.93;80.04
9325;BME280;4701;51.566;6.776;2023-05-07T18:12:24;101521.41;;;18.89;80.03
9325;BME280;4701;51.566;6.776;2023-05-07T18:15:27;101531.44;;;18.85;79.91
9325;BME280;4701;51.566;6.776;2023-05-07T18:18:30;101538.38;;;18.83;79.73
9325;BME280;4701;51.566;6.776;2023-05-07T18:21:34;101531.50;;;18.80;80.04
9325;BME280;4701;51.566;6.776;2023-05-07T18:24:36;101528.53;;;18.77;80.34
9325;BME280;4701;51.566;6.776;2023-05-07T18:27:38;101534.38;;;18.75;80.46
9325;BME280;4701;51.566;6.776;2023-05-07T18:30:39;101537.41;;;18.74;80.72
9325;BME280;4701;51.566;6.776;2023-05-07T18:33:43;101540.81;;;18.71;81.14
9325;BME280;4701;51.566;6.776;2023-05-07T18:36:45;101540.28;;;18.69;81.44
9325;BME280;4701;51.566;6.776;2023-05-07T18:39:46;101544.97;;;18.68;81.71
9325;BME280;4701;51.566;6.776;2023-05-07T18:42:48;101543.34;;;18.67;81.74
9325;BME280;4701;51.566;6.776;2023-05-07T18:45:50;101547.50;;;18.65;81.93
9325;BME280;4701;51.566;6.776;2023-05-07T18:48:53;101547.81;;;18.63;82.05
9325;BME280;4701;51.566;6.776;2023-05-07T18:51:55;101550.91;;;18.62;82.26
9325;BME280;4701;51.566;6.776;2023-05-07T18:54:57;101554.78;;;18.61;82.28
9325;BME280;4701;51.566;6.776;2023-05-07T18:57:59;101558.94;;;18.58;82.56
9325;BME280;4701;51.566;6.776;2023-05-07T19:01:01;101566.41;;;18.58;83.13
9325;BME280;4701;51.566;6.776;2023-05-07T19:04:08;101563.09;;;18.56;83.17
9325;BME280;4701;51.566;6.776;2023-05-07T19:07:10;101563.41;;;18.54;83.48
9325;BME280;4701;51.566;6.776;2023-05-07T19:10:13;101559.31;;;18.51;83.72
9325;BME280;4701;51.566;6.776;2023-05-07T19:13:15;101559.91;;;18.48;83.79
9325;BME280;4701;51.566;6.776;2023-05-07T19:16:17;101563.78;;;18.47;84.03
9325;BME280;4701;51.566;6.776;2023-05-07T19:19:20;101560.50;;;18.45;84.18
9325;BME280;4701;51.566;6.776;2023-05-07T19:22:22;101569.38;;;18.42;84.31
9325;BME280;4701;51.566;6.776;2023-05-07T19:25:24;101560.88;;;18.39;84.59
9325;BME280;4701;51.566;6.776;2023-05-07T19:28:26;101567.81;;;18.36;84.61
9325;BME280;4701;51.566;6.776;2023-05-07T19:31:28;101575.56;;;18.34;84.66
9325;BME280;4701;51.566;6.776;2023-05-07T19:34:31;101570.09;;;18.29;84.73
9325;BME280;4701;51.566;6.776;2023-05-07T19:37:33;101579.84;;;18.27;84.75
9325;BME280;4701;51.566;6.776;2023-05-07T19:40:35;101579.59;;;18.23;85.03
9325;BME280;4701;51.566;6.776;2023-05-07T19:43:37;101582.13;;;18.20;85.12
9325;BME280;4701;51.566;6.776;2023-05-07T19:46:39;101582.72;;;18.17;85.11
9325;BME280;4701;51.566;6.776;2023-05-07T19:49:45;101579.72;;;18.13;85.33
9325;BME280;4701;51.566;6.776;2023-05-07T19:52:47;101593.31;;;18.09;85.28
9325;BME280;4701;51.566;6.776;2023-05-07T19:55:49;101596.66;;;18.06;85.50
9325;BME280;4701;51.566;6.776;2023-05-07T19:58:51;101597.22;;;18.03;85.84
9325;BME280;4701;51.566;6.776;2023-05-07T20:01:53;101609.69;;;18.01;85.86
9325;BME280;4701;51.566;6.776;2023-05-07T20:04:56;101611.38;;;17.97;86.17
9325;BME280;4701;51.566;6.776;2023-05-07T20:07:58;101613.66;;;17.95;85.94
9325;BME280;4701;51.566;6.776;2023-05-07T20:11:01;101617.81;;;17.92;86.00
9325;BME280;4701;51.566;6.776;2023-05-07T20:14:03;101615.09;;;17.87;86.09
9325;BME280;4701;51.566;6.776;2023-05-07T20:17:05;101615.69;;;17.84;86.00
9325;BME280;4701;51.566;6.776;2023-05-07T20:20:10;101617.09;;;17.82;86.00
9325;BME280;4701;51.566;6.776;2023-05-07T20:23:11;101621.25;;;17.79;86.18
9325;BME280;4701;51.566;6.776;2023-05-07T20:26:26;101630.13;;;17.76;86.13
9325;BME280;4701;51.566;6.776;2023-05-07T20:29:28;101633.19;;;17.74;86.20
9325;BME280;4701;51.566;6.776;2023-05-07T20:32:30;101630.19;;;17.71;86.27
9325;BME280;4701;51.566;6.776;2023-05-07T20:35:33;101635.19;;;17.69;86.18
9325;BME280;4701;51.566;6.776;2023-05-07T20:38:34;101639.34;;;17.66;85.92
9325;BME280;4701;51.566;6.776;2023-05-07T20:41:36;101641.84;;;17.63;85.91
9325;BME280;4701;51.566;6.776;2023-05-07T20:44:38;101639.34;;;17.61;85.93
9325;BME280;4701;51.566;6.776;2023-05-07T20:47:40;101632.50;;;17.59;86.05
9325;BME280;4701;51.566;6.776;2023-05-07T20:50:43;101649.31;;;17.57;86.01
9325;BME280;4701;51.566;6.776;2023-05-07T20:53:45;101647.13;;;17.54;86.15
9325;BME280;4701;51.566;6.776;2023-05-07T20:56:47;101649.38;;;17.52;86.19
9325;BME280;4701;51.566;6.776;2023-05-07T20:59:49;101654.06;;;17.52;86.38
